createdAt,value
2022-09-07T00:01:21.971Z,10.00
2022-09-07T00:03:50.658Z,11.47
2022-09-07T00:06:19.521Z,9.90
2022-09-07T00:08:49.631Z,10.00
2022-09-07T00:11:20.436Z,9.50
2022-09-07T00:13:50.464Z,11.43
2022-09-07T00:16:24.315Z,12.00
2022-09-07T00:18:57.071Z,9.03
2022-09-07T00:21:26.763Z,10.03
2022-09-07T00:23:57.729Z,10.20
2022-09-07T00:26:29.962Z,9.63
2022-09-07T00:29:01.115Z,9.47
2022-09-07T00:31:32.187Z,10.60
2022-09-07T00:34:03.050Z,10.93
2022-09-07T00:36:31.879Z,10.43
2022-09-07T00:39:01.774Z,10.53
2022-09-07T00:41:30.808Z,11.57
2022-09-07T00:44:39.461Z,12.27
2022-09-07T00:47:18.183Z,11.50
2022-09-07T00:49:53.839Z,13.57
2022-09-07T00:52:25.019Z,12.17
2022-09-07T00:54:57.912Z,13.43
2022-09-07T00:57:28.102Z,13.23
2022-09-07T00:59:59.190Z,14.20
2022-09-07T01:02:29.583Z,14.03
2022-09-07T01:05:09.538Z,15.97
2022-09-07T01:07:38.395Z,12.93
2022-09-07T01:10:09.034Z,13.27
2022-09-07T01:12:37.846Z,13.90
2022-09-07T01:15:07.978Z,12.57
2022-09-07T01:17:57.022Z,12.53
2022-09-07T01:21:01.645Z,13.10
2022-09-07T01:24:14.659Z,13.50
2022-09-07T01:27:42.451Z,15.93
2022-09-07T01:30:14.224Z,12.03
2022-09-07T01:33:05.071Z,12.53
2022-09-07T01:35:44.097Z,14.37
2022-09-07T01:38:23.358Z,14.70
2022-09-07T01:41:01.070Z,12.67
2022-09-07T01:43:41.198Z,12.50
2022-09-07T01:46:19.831Z,12.90
2022-09-07T01:48:53.306Z,12.97
2022-09-07T01:51:29.607Z,13.80
2022-09-07T01:54:05.527Z,15.87
2022-09-07T01:56:41.807Z,14.07
2022-09-07T01:59:21.268Z,14.63
2022-09-07T02:01:59.923Z,14.93
2022-09-07T02:04:37.211Z,14.27
2022-09-07T02:07:13.934Z,13.67
2022-09-07T02:09:51.549Z,13.07
2022-09-07T02:12:28.763Z,15.47
2022-09-07T02:15:06.832Z,13.90
2022-09-07T02:17:40.837Z,15.23
2022-09-07T02:20:14.618Z,15.70
2022-09-07T02:22:49.423Z,15.33
2022-09-07T02:25:24.698Z,16.30
2022-09-07T02:28:03.529Z,16.37
2022-09-07T02:30:33.261Z,17.53
2022-09-07T02:33:01.896Z,17.60
2022-09-07T02:35:30.881Z,18.83
2022-09-07T02:38:04.534Z,20.90
2022-09-07T02:40:33.670Z,21.47
2022-09-07T02:43:06.487Z,21.30
2022-09-07T02:45:53.340Z,20.37
2022-09-07T02:48:38.446Z,21.57
2022-09-07T02:51:19.157Z,17.83
2022-09-07T02:54:10.598Z,18.23
2022-09-07T02:56:56.823Z,21.90
2022-09-07T02:59:47.363Z,17.50
2022-09-07T03:02:25.842Z,21.60
2022-09-07T03:05:03.633Z,21.90
2022-09-07T03:07:43.998Z,21.33
2022-09-07T03:10:15.732Z,20.93
2022-09-07T03:12:47.408Z,23.80
2022-09-07T03:15:18.510Z,20.93
2022-09-07T03:17:49.236Z,19.97
2022-09-07T03:20:19.117Z,20.83
2022-09-07T03:22:49.431Z,20.47
2022-09-07T03:25:19.364Z,19.20
2022-09-07T03:27:47.671Z,20.33
2022-09-07T03:30:16.560Z,20.23
2022-09-07T03:32:45.457Z,20.70
2022-09-07T03:35:15.843Z,21.63
2022-09-07T03:37:44.229Z,22.73
2022-09-07T03:40:16.239Z,20.07
2022-09-07T03:42:49.437Z,20.70
2022-09-07T03:45:18.737Z,21.83
2022-09-07T03:47:47.066Z,19.03
2022-09-07T03:50:17.115Z,18.33
2022-09-07T03:52:45.547Z,20.50
2022-09-07T03:55:14.059Z,20.90
2022-09-07T03:57:43.546Z,22.77
2022-09-07T04:00:13.873Z,23.33
2022-09-07T04:02:42.430Z,18.93
2022-09-07T04:05:11.523Z,19.67
2022-09-07T04:07:41.164Z,20.00
2022-09-07T04:10:10.405Z,22.20
2022-09-07T04:12:43.132Z,25.33
2022-09-07T04:15:12.646Z,28.20
2022-09-07T04:17:40.987Z,22.27
2022-09-07T04:20:10.872Z,24.17
2022-09-07T04:22:41.135Z,25.97
2022-09-07T04:25:10.165Z,25.10
2022-09-07T04:27:38.991Z,27.73
2022-09-07T04:30:10.644Z,25.07
2022-09-07T04:32:39.443Z,26.13
2022-09-07T04:35:09.474Z,26.90
2022-09-07T04:37:37.805Z,26.10
2022-09-07T04:40:08.463Z,23.87
2022-09-07T04:42:37.431Z,23.83
2022-09-07T04:45:07.143Z,28.50
2022-09-07T04:47:35.507Z,24.97
2022-09-07T04:50:05.367Z,24.17
2022-09-07T04:52:34.435Z,31.90
2022-09-07T04:55:02.789Z,22.90
2022-09-07T04:57:32.436Z,26.47
2022-09-07T05:00:01.227Z,27.27
2022-09-07T05:02:30.250Z,23.60
2022-09-07T05:05:02.612Z,20.47
2022-09-07T05:07:31.304Z,22.47
2022-09-07T05:09:59.673Z,20.47
2022-09-07T05:12:27.998Z,17.63
2022-09-07T05:14:57.953Z,16.90
2022-09-07T05:17:26.823Z,17.90
2022-09-07T05:19:55.127Z,16.10
2022-09-07T05:22:24.955Z,14.93
2022-09-07T05:24:53.777Z,17.83
2022-09-07T05:27:22.443Z,13.73
2022-09-07T05:30:06.333Z,16.93
2022-09-07T05:32:36.722Z,16.97
2022-09-07T05:35:05.756Z,15.17
2022-09-07T05:37:34.610Z,16.43
2022-09-07T05:40:03.340Z,17.30
2022-09-07T05:42:31.913Z,16.53
2022-09-07T05:45:00.843Z,16.23
2022-09-07T05:47:29.181Z,15.67
2022-09-07T05:49:58.879Z,15.47
2022-09-07T05:52:27.954Z,17.13
2022-09-07T05:55:03.207Z,15.33
2022-09-07T05:57:45.086Z,14.93
2022-09-07T06:00:15.249Z,15.00
2022-09-07T06:02:43.718Z,13.93
2022-09-07T06:05:15.095Z,19.20
2022-09-07T06:07:43.381Z,14.77
2022-09-07T06:12:59.951Z,16.73
2022-09-07T06:15:28.796Z,14.77
2022-09-07T06:17:57.258Z,12.90
2022-09-07T06:20:26.964Z,12.07
2022-09-07T06:22:55.618Z,12.67
2022-09-07T06:25:24.434Z,15.00
2022-09-07T06:27:53.848Z,12.23
2022-09-07T06:30:22.365Z,12.63
2022-09-07T06:32:51.198Z,12.00
2022-09-07T06:35:19.580Z,12.67
2022-09-07T06:37:49.203Z,13.53
2022-09-07T06:40:18.100Z,12.37
2022-09-07T06:42:46.742Z,13.70
2022-09-07T06:45:17.385Z,17.40
2022-09-07T06:47:45.735Z,13.30
2022-09-07T06:50:14.677Z,13.97
2022-09-07T06:55:33.215Z,12.10
2022-09-07T06:58:01.848Z,12.10
2022-09-07T07:00:30.712Z,12.83
2022-09-07T07:02:59.087Z,12.40
2022-09-07T07:05:27.711Z,11.00
2022-09-07T07:07:56.357Z,13.33
2022-09-07T07:10:25.411Z,10.83
2022-09-07T07:12:58.358Z,10.70
2022-09-07T07:15:29.320Z,10.73
2022-09-07T07:18:13.450Z,10.40
2022-09-07T07:20:46.679Z,11.93
2022-09-07T07:23:14.989Z,11.43
2022-09-07T07:25:43.570Z,10.17
2022-09-07T07:31:08.950Z,12.13
2022-09-07T07:33:39.544Z,10.80
2022-09-07T07:36:14.506Z,13.60
2022-09-07T07:39:02.055Z,12.33
2022-09-07T07:44:23.065Z,16.47
2022-09-07T07:46:51.992Z,12.20
2022-09-07T07:49:20.962Z,11.03
2022-09-07T07:54:37.972Z,14.60
2022-09-07T07:57:07.267Z,9.03
2022-09-07T07:59:36.882Z,9.03
2022-09-07T08:02:08.768Z,8.83
2022-09-07T08:04:37.839Z,6.77
2022-09-07T08:07:10.555Z,6.57
2022-09-07T08:09:41.472Z,6.00
2022-09-07T08:12:11.483Z,6.17
2022-09-07T08:14:41.970Z,5.33
2022-09-07T08:17:13.225Z,6.63
2022-09-07T08:19:42.599Z,5.20
2022-09-07T08:22:12.565Z,6.70
2022-09-07T08:24:41.387Z,4.13
2022-09-07T08:27:09.981Z,4.73
2022-09-07T08:29:38.771Z,5.73
2022-09-07T08:32:09.007Z,4.90
2022-09-07T08:34:38.152Z,4.43
2022-09-07T08:37:06.459Z,4.60
2022-09-07T08:39:36.668Z,6.37
2022-09-07T08:42:29.333Z,4.60
2022-09-07T08:45:06.770Z,3.47
2022-09-07T08:47:42.339Z,4.50
2022-09-07T08:50:19.287Z,5.50
2022-09-07T08:52:55.335Z,4.70
2022-09-07T08:55:31.457Z,4.63
2022-09-07T08:58:22.162Z,6.10
2022-09-07T09:07:04.378Z,4.53
2022-09-07T09:09:53.066Z,4.47
2022-09-07T09:12:37.472Z,9.33
2022-09-07T09:15:21.062Z,11.37
2022-09-07T09:17:59.671Z,6.83
2022-09-07T09:20:40.056Z,5.30
2022-09-07T09:23:14.495Z,5.60
2022-09-07T09:25:54.083Z,4.80
2022-09-07T09:28:24.681Z,4.77
2022-09-07T09:30:56.123Z,4.43
2022-09-07T09:33:27.086Z,4.87
2022-09-07T09:36:00.935Z,4.80
2022-09-07T09:38:34.555Z,4.47
2022-09-07T09:41:07.051Z,4.40
2022-09-07T09:43:44.439Z,4.77
2022-09-07T09:46:23.738Z,4.77
2022-09-07T09:49:00.358Z,5.23
2022-09-07T09:54:30.682Z,5.73
2022-09-07T09:57:00.039Z,4.93
2022-09-07T10:05:29.507Z,9.00
2022-09-07T10:07:59.530Z,5.43
2022-09-07T10:10:29.503Z,7.77
2022-09-07T10:12:58.847Z,8.43
2022-09-07T10:15:41.284Z,6.17
2022-09-07T10:18:26.045Z,7.70
2022-09-07T10:20:54.357Z,6.50
2022-09-07T10:23:25.727Z,6.63
2022-09-07T10:25:54.318Z,7.67
2022-09-07T10:28:25.700Z,5.80
2022-09-07T10:31:22.138Z,8.93
2022-09-07T10:37:02.754Z,8.07
2022-09-07T10:39:40.217Z,4.90
2022-09-07T10:42:29.084Z,7.40
2022-09-07T10:45:12.680Z,7.57
2022-09-07T10:47:59.934Z,5.23
2022-09-07T10:50:38.067Z,8.43
2022-09-07T10:53:42.126Z,7.37
2022-09-07T10:56:18.819Z,7.10
2022-09-07T10:59:04.527Z,7.13
2022-09-07T11:01:51.981Z,8.90
2022-09-07T11:04:46.751Z,10.83
2022-09-07T11:07:40.739Z,6.43
2022-09-07T11:10:25.875Z,7.30
2022-09-07T11:13:00.182Z,7.73
2022-09-07T11:15:34.179Z,6.60
2022-09-07T11:18:12.676Z,6.83
2022-09-07T11:20:54.756Z,6.77
2022-09-07T11:23:32.127Z,27.53
2022-09-07T11:26:11.361Z,7.30
2022-09-07T11:29:28.778Z,6.00
2022-09-07T11:31:43.067Z,7.63
2022-09-07T11:34:24.656Z,6.27
2022-09-07T11:37:06.063Z,8.07
2022-09-07T11:39:44.037Z,5.57
2022-09-07T11:45:23.303Z,6.00
2022-09-07T11:48:01.001Z,6.10
2022-09-07T11:50:36.451Z,7.03
2022-09-07T11:53:10.639Z,5.73
2022-09-07T11:55:49.557Z,6.70
2022-09-07T11:59:00.583Z,4.83
2022-09-07T12:01:45.495Z,6.80
2022-09-07T12:04:33.762Z,6.87
2022-09-07T12:07:49.259Z,5.20
2022-09-07T12:10:56.890Z,6.23
2022-09-07T12:14:13.221Z,5.77
2022-09-07T12:17:27.589Z,5.30
2022-09-07T12:20:15.353Z,6.70
2022-09-07T12:23:04.273Z,8.27
2022-09-07T12:25:35.704Z,13.70
2022-09-07T12:28:04.676Z,7.03
2022-09-07T12:31:04.435Z,8.63
2022-09-07T12:33:37.381Z,7.77
2022-09-07T12:36:42.313Z,8.90
2022-09-07T12:39:25.665Z,8.20
2022-09-07T12:42:37.951Z,15.50
2022-09-07T12:45:49.969Z,5.57
2022-09-07T12:48:44.446Z,8.53
2022-09-07T12:54:28.453Z,6.90
2022-09-07T13:00:13.630Z,9.97
2022-09-07T13:09:41.941Z,10.00
2022-09-07T13:15:53.256Z,8.63
2022-09-07T13:18:44.233Z,8.43
2022-09-07T13:21:36.252Z,10.07
2022-09-07T13:24:52.745Z,5.43
2022-09-07T13:27:34.477Z,4.03
2022-09-07T13:30:23.053Z,6.97
2022-09-07T13:33:32.472Z,4.20
2022-09-07T13:36:04.956Z,6.73
2022-09-07T13:38:36.803Z,6.90
2022-09-07T13:41:12.992Z,5.50
2022-09-07T13:43:47.466Z,8.00
2022-09-07T13:46:41.873Z,7.37
2022-09-07T13:49:35.623Z,5.37
2022-09-07T13:52:16.121Z,5.67
2022-09-07T13:55:03.358Z,8.13
2022-09-07T13:57:47.164Z,7.70
2022-09-07T14:00:17.943Z,10.17
2022-09-07T14:02:55.904Z,9.57
2022-09-07T14:05:27.176Z,7.33
2022-09-07T14:07:55.534Z,9.80
2022-09-07T14:10:28.204Z,7.53
2022-09-07T14:13:12.085Z,5.63
2022-09-07T14:15:44.714Z,7.33
2022-09-07T14:18:15.682Z,11.10
2022-09-07T14:20:49.018Z,5.67
2022-09-07T14:23:27.973Z,8.60
2022-09-07T14:26:18.711Z,8.53
2022-09-07T14:28:49.981Z,8.83
2022-09-07T14:31:22.041Z,7.93
2022-09-07T14:33:54.912Z,9.60
2022-09-07T14:36:48.491Z,4.77
2022-09-07T14:39:22.041Z,5.10
2022-09-07T14:41:51.862Z,5.73
2022-09-07T14:44:40.310Z,9.13
2022-09-07T14:47:22.763Z,11.17
2022-09-07T14:49:53.094Z,9.03
2022-09-07T14:52:32.545Z,7.20
2022-09-07T14:55:03.893Z,6.60
2022-09-07T14:57:32.973Z,6.10
2022-09-07T15:00:20.952Z,11.53
2022-09-07T15:02:50.098Z,6.27
2022-09-07T15:05:27.865Z,5.90
2022-09-07T15:08:00.519Z,5.60
2022-09-07T15:10:37.354Z,9.50
2022-09-07T15:13:24.146Z,6.37
2022-09-07T15:16:02.280Z,10.37
2022-09-07T15:18:57.031Z,5.33
2022-09-07T15:21:28.400Z,5.17
2022-09-07T15:24:00.572Z,5.87
2022-09-07T15:29:29.169Z,4.77
2022-09-07T15:32:03.867Z,8.63
2022-09-07T15:34:34.537Z,8.33
2022-09-07T15:38:00.298Z,11.97
2022-09-07T15:39:53.775Z,6.70
2022-09-07T15:45:12.234Z,5.93
2022-09-07T15:47:48.137Z,9.37
2022-09-07T15:50:23.683Z,10.77
2022-09-07T15:52:52.045Z,5.83
2022-09-07T15:55:22.079Z,8.10
2022-09-07T15:57:59.439Z,6.20
2022-09-07T16:00:34.460Z,7.90
2022-09-07T16:03:06.741Z,5.77
2022-09-07T16:05:36.820Z,6.87
2022-09-07T16:10:55.959Z,4.00
2022-09-07T16:13:32.642Z,3.93
2022-09-07T16:16:01.965Z,3.83
2022-09-07T16:18:31.842Z,5.07
2022-09-07T16:21:11.876Z,6.77
2022-09-07T16:23:43.981Z,5.23
2022-09-07T16:26:14.677Z,4.83
2022-09-07T16:28:46.602Z,3.63
2022-09-07T16:31:18.253Z,3.70
2022-09-07T16:33:46.623Z,2.73
2022-09-07T16:36:17.556Z,3.77
2022-09-07T16:38:48.487Z,3.97
2022-09-07T16:41:21.017Z,3.27
2022-09-07T16:43:50.184Z,4.27
2022-09-07T16:46:21.757Z,4.57
2022-09-07T16:48:52.698Z,4.10
2022-09-07T16:51:24.323Z,5.57
2022-09-07T16:53:56.286Z,4.97
2022-09-07T16:56:29.002Z,4.43
2022-09-07T16:58:59.706Z,4.20
2022-09-07T17:01:31.437Z,5.47
2022-09-07T17:04:01.123Z,6.17
2022-09-07T17:06:31.999Z,5.67
2022-09-07T17:09:01.284Z,5.40
2022-09-07T17:11:35.031Z,6.03
2022-09-07T17:14:06.463Z,7.07
2022-09-07T17:16:37.842Z,6.60
2022-09-07T17:21:57.634Z,6.20
2022-09-07T17:24:26.202Z,6.40
2022-09-07T17:26:55.916Z,5.40
2022-09-07T17:29:24.736Z,5.70
2022-09-07T17:34:42.209Z,5.70
2022-09-07T17:37:10.601Z,5.73
2022-09-07T17:39:39.575Z,5.13
2022-09-07T17:42:09.926Z,7.33
2022-09-07T17:44:38.819Z,5.93
2022-09-07T17:47:07.682Z,5.27
2022-09-07T17:49:36.612Z,6.40
2022-09-07T17:52:05.519Z,6.00
2022-09-07T17:54:34.078Z,5.40
2022-09-07T17:57:03.042Z,6.13
2022-09-07T18:02:21.441Z,5.80
2022-09-07T18:04:50.639Z,7.10
2022-09-07T18:07:19.531Z,6.70
2022-09-07T18:09:48.373Z,6.47
2022-09-07T18:12:16.750Z,7.23
2022-09-07T18:14:46.406Z,6.97
2022-09-07T18:17:14.653Z,6.10
2022-09-07T18:19:43.077Z,7.10
2022-09-07T18:22:11.863Z,6.03
2022-09-07T18:24:40.191Z,5.00
2022-09-07T18:27:09.721Z,5.30
2022-09-07T18:29:38.556Z,5.77
2022-09-07T18:32:09.833Z,5.23
2022-09-07T18:34:41.264Z,5.80
2022-09-07T18:37:12.092Z,6.30
2022-09-07T18:39:41.134Z,7.17
2022-09-07T18:42:10.482Z,6.20
2022-09-07T18:47:29.845Z,6.47
2022-09-07T18:49:59.192Z,7.53
2022-09-07T18:55:17.170Z,13.03
2022-09-07T18:57:45.428Z,7.30
2022-09-07T19:00:14.792Z,6.77
2022-09-07T19:02:44.394Z,7.67
2022-09-07T19:08:03.344Z,8.90
2022-09-07T19:10:35.690Z,8.97
2022-09-07T19:13:05.027Z,12.23
2022-09-07T19:15:37.990Z,11.10
2022-09-07T19:18:09.219Z,7.53
2022-09-07T19:20:37.733Z,8.10
2022-09-07T19:23:06.747Z,9.93
2022-09-07T19:25:35.282Z,7.30
2022-09-07T19:28:04.030Z,8.47
2022-09-07T19:30:35.051Z,8.10
2022-09-07T19:33:04.487Z,8.17
2022-09-07T19:35:37.715Z,8.67
2022-09-07T19:38:06.075Z,9.13
2022-09-07T19:40:34.677Z,9.67
2022-09-07T19:43:03.543Z,9.30
2022-09-07T19:45:32.048Z,8.37
2022-09-07T19:48:00.343Z,9.00
2022-09-07T19:50:29.131Z,14.53
2022-09-07T19:52:58.905Z,8.87
2022-09-07T19:55:27.517Z,9.03
2022-09-07T19:57:56.595Z,9.77
2022-09-07T20:00:24.869Z,9.93
2022-09-07T20:02:54.069Z,9.83
2022-09-07T20:05:23.697Z,10.07
2022-09-07T20:07:51.984Z,10.10
2022-09-07T20:10:22.181Z,10.10
2022-09-07T20:12:50.470Z,10.87
2022-09-07T20:15:19.319Z,12.13
2022-09-07T20:17:47.969Z,11.00
2022-09-07T20:20:16.516Z,10.97
2022-09-07T20:22:44.777Z,10.57
2022-09-07T20:25:13.842Z,11.27
2022-09-07T20:27:43.778Z,11.37
2022-09-07T20:30:13.365Z,11.40
2022-09-07T20:32:42.784Z,11.57
2022-09-07T20:35:11.215Z,11.20
2022-09-07T20:37:39.579Z,11.43
2022-09-07T20:40:10.424Z,10.93
2022-09-07T20:42:40.611Z,13.33
2022-09-07T20:45:11.968Z,12.43
2022-09-07T20:47:40.227Z,13.53
2022-09-07T20:50:09.794Z,13.93
2022-09-07T20:52:38.609Z,12.03
2022-09-07T20:55:07.880Z,11.73
2022-09-07T20:57:37.828Z,11.67
2022-09-07T21:00:07.991Z,11.73
2022-09-07T21:02:37.799Z,12.90
2022-09-07T21:05:07.792Z,13.00
2022-09-07T21:07:39.104Z,12.43
2022-09-07T21:10:09.681Z,12.80
2022-09-07T21:12:38.058Z,12.60
2022-09-07T21:15:08.881Z,12.87
2022-09-07T21:17:39.035Z,11.60
2022-09-07T21:20:08.542Z,12.40
2022-09-07T21:22:36.785Z,12.60
2022-09-07T21:25:05.819Z,13.07
2022-09-07T21:27:38.789Z,14.70
2022-09-07T21:30:09.028Z,14.30
2022-09-07T21:32:40.296Z,17.50
2022-09-07T21:35:11.009Z,12.73
2022-09-07T21:37:39.563Z,13.47
2022-09-07T21:40:09.369Z,13.23
2022-09-07T21:42:37.703Z,14.20
2022-09-07T21:45:07.391Z,13.57
2022-09-07T21:47:36.201Z,13.47
2022-09-07T21:50:06.953Z,14.83
2022-09-07T21:52:35.211Z,14.23
2022-09-07T21:55:04.031Z,14.33
2022-09-07T21:57:32.270Z,13.80
2022-09-07T22:00:00.618Z,13.90
2022-09-07T22:02:30.217Z,15.07
2022-09-07T22:04:59.067Z,13.70
2022-09-07T22:07:28.641Z,13.83
2022-09-07T22:09:57.439Z,14.30
2022-09-07T22:12:25.687Z,14.93
2022-09-07T22:14:53.983Z,13.77
2022-09-07T22:17:22.572Z,17.13
2022-09-07T22:19:51.187Z,13.30
2022-09-07T22:22:19.458Z,13.87
2022-09-07T22:24:49.352Z,20.23
2022-09-07T22:27:17.647Z,14.87
2022-09-07T22:29:46.049Z,13.67
2022-09-07T22:32:14.313Z,14.67
2022-09-07T22:34:42.570Z,13.97
2022-09-07T22:37:11.339Z,15.00
2022-09-07T22:39:39.946Z,14.53
2022-09-07T22:42:10.093Z,14.13
2022-09-07T22:44:39.362Z,16.90
2022-09-07T22:47:07.649Z,16.27
2022-09-07T22:49:36.233Z,14.60
2022-09-07T22:52:05.125Z,15.00
2022-09-07T22:54:33.395Z,15.60
2022-09-07T22:57:01.633Z,15.20
2022-09-07T22:59:31.911Z,15.13
2022-09-07T23:02:00.699Z,15.30
2022-09-07T23:04:31.740Z,14.37
2022-09-07T23:07:00.257Z,16.03
2022-09-07T23:09:29.329Z,14.23
2022-09-07T23:11:58.114Z,15.50
2022-09-07T23:14:26.416Z,13.93
2022-09-07T23:16:56.104Z,14.53
2022-09-07T23:19:25.101Z,13.30
2022-09-07T23:21:53.365Z,14.03
2022-09-07T23:24:21.615Z,13.80
2022-09-07T23:26:50.883Z,13.70
2022-09-07T23:29:21.073Z,13.57
2022-09-07T23:31:50.163Z,14.23
2022-09-07T23:34:20.293Z,13.20
2022-09-07T23:36:49.104Z,14.67
2022-09-07T23:39:17.378Z,15.20
2022-09-07T23:41:45.697Z,14.00
2022-09-07T23:44:14.012Z,14.90
2022-09-07T23:46:42.295Z,14.13
2022-09-07T23:49:10.564Z,14.63
2022-09-07T23:51:40.656Z,13.73
2022-09-07T23:54:09.770Z,16.83
2022-09-07T23:56:39.032Z,14.07
2022-09-07T23:59:07.271Z,14.50
